首页
METAR-TAF:

METAR-TAF

机场 :

伯明翰机场

伯明翰, 英格兰

纬度: 52-27N, 经度: 001-44W, 海拔: 99米

当前天气观测

该预报发布于15分钟前的15:20 UTC
风速6节,风向南转南东
温度 16°C
湿度 77%
气压 1012 hPa
能见度10公里或以上
少量云层高于2700英尺
小雨

METAR: EGBB 181520Z 16006KT 9999 -RA FEW027 16/12 Q1012 REDZ

时间: 16:35 (15:35 UTC)

预报

该预报发布于4小时和39分钟前的10:56 UTC
预报有效从18日的 12点(UTC)到 19日的 12点(UTC)
风速4节,风向南转南东
能见度10公里或以上
散云层高于2500英尺
几率 30% :
短暂存在
从 18日的 12点(UTC)到 19日的 04点(UTC)
能見度: 6000
雨, 阵雨
短暂存在
从 19日的 04点(UTC)到 19日的 12点(UTC)
能見度: 6000
多云层高于700英尺
几率 30% :
短暂存在
从 19日的 04点(UTC)到 19日的 12点(UTC)
能見度: 4000
多云层高于400英尺
大雨

TAF: EGBB 181056Z 1812/1912 16004KT 9999 SCT025 PROB30 TEMPO 1812/1904 6000 RA SHRA TEMPO 1904/1912 6000 RA BKN007 PROB30 TEMPO 1904/1912 4000 +RA BKN004

超过4000个机场的气象观测和天气预报(METAR&TAF报告)。

可查询的气象台以黄色和红色小点在地图上表示。

将鼠标移到小点上方,可查看气象台名称。

然后点击查看天气观测和预报。

如需切换地图:点击带黑十字的绿色按钮放大地图;点击带横线的绿色按钮缩小地图;或者点击绿色箭头查看邻近地区的地图。


METAR-TAF: